Latest Weather Observations for Mount Wellington

IDT60801

Issued at 4:31 am EST Sunday 5 July 2015 (issued every 30 minutes, with the page automatically refreshed every 10 minutes)

About weather observations | Map of weather stations | Latest weather observations for TAS | Other Formats
Station Details ID: 094087 Name: MOUNT WELLINGTON Lat: -42.90 Lon: 147.24 Height: 1260.47 m
Data from the previous 72 hours. | See also: Recent months at Mount Wellington
Date/Time
EST
Temp
°C
App
Temp
°C
Dew
Point
Rel
Hum
%
Delta-T
°C
Wind Press
QNH
hPa
Press
MSL
hPa
Rain
since 9 am
mm
Dir
 
Spd
km/h
Gust
km/h
Spd
kts
Gust
kts
05/04:30am -1.2 -13.0 -2.2 93 0.3 WSW 50 59 27 32 - - 0.0
05/04:00am -1.2 -14.2 -2.5 91 0.4 WSW 56 65 30 35 - - 0.0
05/03:30am -1.2 -14.2 -2.6 90 0.5 WSW 56 67 30 36 - - 0.0
05/03:00am -1.0 -14.1 -2.1 92 0.4 WSW 57 70 31 38 - - 0.0
05/02:30am -1.1 -13.7 -2.5 90 0.5 W 54 69 29 37 - - 0.0
05/02:00am -1.1 -14.1 -2.5 90 0.5 W 56 69 30 37 - - 0.0
05/01:30am -1.4 -14.0 -2.5 92 0.3 WSW 54 69 29 37 - - 0.0
05/01:00am -1.6 -14.2 -2.6 93 0.3 WSW 54 67 29 36 - - 0.0
05/12:30am -1.6 -13.0 -2.4 94 0.2 WSW 48 57 26 31 - - 0.0
05/12:00am -1.6 -12.7 -2.6 93 0.3 WSW 46 56 25 30 - - 0.0
 
Date/Time
EST
Temp
°C
App
Temp
°C
Dew
Point
Rel
Hum
%
Delta-T
°C
Wind Press
QNH
hPa
Press
MSL
hPa
Rain
since 9 am
mm
Dir
 
Spd
km/h
Gust
km/h
Spd
kts
Gust
kts
04/11:30pm -1.6 -12.1 -2.4 94 0.2 WSW 43 52 23 28 - - 0.0
04/11:00pm -1.6 -11.7 -2.6 93 0.3 WSW 41 48 22 26 - - 0.0
04/10:30pm -1.5 -12.2 -2.3 94 0.2 WSW 44 52 24 28 - - 0.0
04/10:00pm -1.6 -12.1 -2.4 94 0.2 WSW 43 52 23 28 - - 0.0
04/09:30pm -1.6 -10.0 -2.7 92 0.3 WSW 32 44 17 24 - - 0.0
04/09:00pm -1.4 -11.9 -2.5 92 0.3 WSW 43 52 23 28 - - 0.0
04/08:30pm -1.3 -10.6 -2.4 92 0.3 WSW 37 50 20 27 - - 0.0
04/08:00pm -1.3 -11.0 -2.4 92 0.3 WSW 39 48 21 26 - - 0.0
04/07:30pm -1.3 -10.3 -3.0 88 0.5 WSW 35 43 19 23 - - 0.0
04/07:00pm -1.2 -10.6 -3.2 86 0.7 WSW 37 52 20 28 - - 0.0
04/06:30pm -1.4 -9.1 -2.7 91 0.4 WSW 28 35 15 19 - - 0.0
04/06:00pm -1.3 -8.2 -2.4 92 0.3 WSW 24 37 13 20 - - 0.0
04/05:30pm -1.2 -8.8 -2.2 93 0.3 WSW 28 39 15 21 - - 0.0
04/05:00pm -1.1 -9.6 -1.9 94 0.2 WSW 33 41 18 22 - - 0.0
04/04:30pm -0.8 -9.3 -1.6 94 0.3 WSW 33 43 18 23 - - 0.0
04/04:00pm -0.4 -11.0 -1.7 91 0.5 WSW 44 54 24 29 - - 0.0
04/03:30pm 0.0 -11.4 -2.5 83 0.9 WSW 48 63 26 34 - - 0.0
04/03:14pm 0.1 -11.7 -2.3 84 0.9 WSW 50 69 27 37 - - 0.0
04/03:00pm 0.3 -12.6 -2.4 82 1.0 WSW 56 70 30 38 - - 0.0
04/02:30pm 0.4 -10.6 -2.3 82 1.0 WSW 46 65 25 35 - - 0.0
04/02:28pm 0.5 -10.1 -1.7 85 0.9 WSW 44 65 24 35 - - 0.0
04/02:00pm 0.9 -7.5 -1.2 86 0.8 WSW 33 43 18 23 - - 0.0
04/01:30pm 0.9 -7.9 -1.5 84 1.0 WSW 35 46 19 25 - - 0.0
04/01:00pm 1.2 -7.6 -1.2 84 0.9 WSW 35 44 19 24 - - 0.0
04/12:30pm 1.5 -8.1 -1.4 81 1.1 WSW 39 54 21 29 - - 0.0
04/12:00pm 1.4 -7.4 -1.0 84 0.9 WSW 35 48 19 26 - - 0.0
04/11:30am 1.6 -4.7 -0.8 84 0.9 W 22 33 12 18 - - 0.0
04/11:02am 1.5 -5.9 -0.7 85 0.9 WSW 28 48 15 26 - - 0.0
04/11:00am 1.5 -5.5 -0.6 86 0.8 WSW 26 43 14 23 - - 0.0
04/10:49am 1.7 -5.7 -0.4 86 0.8 W 28 46 15 25 - - 0.0
04/10:30am 2.0 -2.7 0.8 92 0.5 W 15 24 8 13 - - 0.0
04/10:00am 1.2 -6.5 0.2 93 0.4 WSW 30 39 16 21 - - 0.0
04/09:30am 1.4 -7.9 0.4 93 0.4 WSW 39 57 21 31 - - 0.0
04/09:00am 1.6 -8.0 1.2 97 0.2 WSW 41 65 22 35 - - 2.2
04/08:45am 1.8 -8.4 1.2 96 0.2 WSW 44 65 24 35 - - 2.2
04/08:30am 1.8 -8.4 1.2 96 0.2 WSW 44 59 24 32 - - 2.2
04/08:00am 1.8 -10.3 1.2 96 0.2 WSW 54 69 29 37 - - 2.2
04/07:36am 1.8 -10.8 1.5 98 0.1 WSW 57 80 31 43 - - 2.2
04/07:30am 1.9 -11.0 1.6 98 0.1 WSW 59 74 32 40 - - 2.2
04/07:00am 2.4 -10.5 2.1 98 0.1 WSW 59 82 32 44 - - 2.2
04/06:41am 2.6 -8.5 2.3 98 0.1 WSW 50 70 27 38 - - 2.0
04/06:30am 2.5 -9.4 2.2 98 0.1 WSW 54 69 29 37 - - 1.8
04/06:00am 2.7 -8.4 2.4 98 0.1 WSW 50 76 27 41 - - 1.8
04/05:30am 2.6 -10.2 2.3 98 0.1 WSW 59 80 32 43 - - 1.4
04/05:00am 2.5 -9.8 2.2 98 0.1 WSW 56 74 30 40 - - 1.2
04/04:30am 2.7 -11.3 2.3 97 0.2 W 65 93 35 50 - - 1.2
04/04:00am 2.4 -13.0 2.0 97 0.2 W 72 102 39 55 - - 1.2
04/03:30am 2.1 -12.0 1.8 98 0.1 W 65 91 35 49 - - 1.0
04/03:00am 1.7 -13.4 1.4 98 0.1 W 70 98 38 53 - - 1.0
04/02:31am 1.2 -11.9 0.9 98 0.1 WSW 59 80 32 43 - - 1.0
04/02:30am 1.2 -12.2 0.9 98 0.1 WSW 61 80 33 43 - - 1.0
04/02:00am 1.0 -12.5 0.7 98 0.1 W 61 83 33 45 - - 1.0
04/01:32am 0.9 -13.4 0.5 97 0.2 W 65 85 35 46 - - 1.0
04/01:30am 0.8 -13.5 0.4 97 0.2 W 65 82 35 44 - - 1.0
04/01:00am 0.7 -12.8 0.4 98 0.1 W 61 82 33 44 - - 1.0
04/12:35am 0.3 -11.6 0.0 98 0.1 W 52 78 28 42 - - 1.0
04/12:30am 0.2 -12.1 -0.1 98 0.1 W 54 70 29 38 - - 1.0
04/12:00am 0.1 -11.0 -0.3 97 0.2 W 48 70 26 38 - - 1.0
 
Date/Time
EST
Temp
°C
App
Temp
°C
Dew
Point
Rel
Hum
%
Delta-T
°C
Wind Press
QNH
hPa
Press
MSL
hPa
Rain
since 9 am
mm
Dir
 
Spd
km/h
Gust
km/h
Spd
kts
Gust
kts
03/11:30pm -0.2 -11.4 -0.6 97 0.1 W 48 72 26 39 - - 1.0
03/11:00pm -0.2 -12.5 -0.6 97 0.1 WNW 54 76 29 41 - - 1.0
03/10:55pm -0.3 -12.6 -0.7 97 0.1 W 54 74 29 40 - - 1.0
03/10:54pm -0.3 -12.6 -0.7 97 0.1 W 54 72 29 39 - - 1.0
03/10:30pm -0.3 -15.7 -0.9 96 0.2 W 70 91 38 49 - - 1.0
03/10:00pm -0.6 -16.1 -1.2 96 0.2 W 70 95 38 51 - - 1.0
03/09:30pm -0.5 -16.7 -1.1 96 0.2 W 74 100 40 54 - - 1.0
03/09:00pm -0.5 -15.8 -1.6 92 0.4 W 69 102 37 55 - - 1.0
03/08:30pm -0.3 -15.6 -1.4 92 0.4 W 69 91 37 49 - - 1.0
03/08:05pm -0.6 -13.6 -1.6 93 0.3 WNW 57 80 31 43 - - 1.0
03/08:00pm -0.7 -13.2 -1.7 93 0.3 W 54 70 29 38 - - 1.0
03/07:54pm -0.8 -13.3 -1.6 94 0.3 W 54 74 29 40 - - 1.0
03/07:30pm -0.6 -16.1 -1.7 92 0.4 W 70 91 38 49 - - 1.0
03/07:00pm -0.4 -16.3 -1.5 92 0.4 W 72 93 39 50 - - 1.0
03/06:42pm -1.1 -16.4 -1.7 96 0.2 W 69 89 37 48 - - 1.0
03/06:30pm -1.0 -16.3 -1.7 95 0.2 W 69 85 37 46 - - 1.0
03/06:00pm -1.0 -14.8 -2.0 93 0.3 W 61 85 33 46 - - 1.0
03/05:48pm -0.9 -14.4 -2.0 92 0.4 W 59 78 32 42 - - 1.0
03/05:30pm -1.1 -15.3 -1.9 94 0.2 W 63 76 34 41 - - 1.0
03/05:11pm -0.9 -15.5 -1.7 94 0.3 W 65 85 35 46 - - 0.8
03/05:00pm -1.0 -14.8 -2.0 93 0.3 W 61 78 33 42 - - 0.8
03/04:43pm -0.7 -13.2 -1.8 92 0.4 W 54 76 29 41 - - 0.8
03/04:30pm -0.6 -11.5 -1.4 94 0.3 W 46 61 25 33 - - 0.8
03/04:07pm -0.5 -14.3 -1.3 94 0.3 W 61 82 33 44 - - 0.8
03/04:00pm -0.5 -14.3 -1.3 94 0.3 W 61 80 33 43 - - 0.8
03/03:44pm -0.7 -13.7 -1.4 95 0.2 W 57 76 31 41 - - 0.8
03/03:30pm -0.6 -13.6 -1.3 95 0.2 W 57 72 31 39 - - 0.8
03/03:00pm -0.1 -11.8 -1.2 92 0.4 W 50 61 27 33 - - 0.8
03/02:30pm 0.0 -10.9 -1.6 89 0.6 W 46 57 25 31 - - 0.8
03/02:00pm 0.3 -8.1 -1.0 91 0.5 W 33 46 18 25 - - 0.8
03/01:30pm 0.4 -8.4 -0.9 91 0.5 W 35 43 19 23 - - 0.8
03/01:00pm 0.3 -9.6 -0.8 92 0.4 W 41 52 22 28 - - 0.8
03/12:30pm 0.4 -8.4 -1.3 88 0.7 W 35 44 19 24 - - 0.8
03/12:00pm 0.6 -7.8 -1.0 89 0.7 W 33 46 18 25 - - 0.8
03/11:30am 0.5 -6.9 -0.9 90 0.6 W 28 33 15 18 - - 0.8
03/11:00am -0.6 -7.0 -2.0 90 0.5 W 22 28 12 15 - - 0.8
03/10:30am -0.7 -8.3 -2.0 91 0.4 W 28 30 15 16 - - 0.4
03/10:00am -1.1 -7.6 -2.1 93 0.3 W 22 30 12 16 - - 0.0
03/09:30am -1.1 -7.0 -1.9 94 0.2 WSW 19 26 10 14 - - 0.0
03/09:00am -1.3 -6.8 -2.0 95 0.2 WSW 17 19 9 10 - - 0.0
03/08:30am -1.0 -6.8 -1.6 96 0.2 WSW 19 20 10 11 - - 0.0
03/08:00am -1.1 -7.1 -1.7 96 0.2 WSW 20 22 11 12 - - 0.0
03/07:30am -1.8 -7.3 -2.4 96 0.1 WSW 17 20 9 11 - - 0.0
03/07:00am -1.9 -7.8 -2.5 96 0.1 WSW 19 20 10 11 - - 0.0
03/06:30am -1.9 -7.5 -2.5 96 0.1 WSW 17 22 9 12 - - 0.0
03/06:00am -1.8 -6.6 -2.4 96 0.1 WSW 13 15 7 8 - - 0.0
03/05:30am -2.1 -7.3 -2.6 96 0.1 WSW 15 19 8 10 - - 0.0
03/05:00am -2.5 -8.5 -3.0 96 0.1 WSW 19 22 10 12 - - 0.0
03/04:30am -2.7 -8.9 -3.4 95 0.1 WSW 20 26 11 14 - - 0.0
03/04:00am -2.8 -9.0 -3.5 95 0.1 WSW 20 24 11 13 - - 0.0
03/03:30am -2.8 -9.8 -3.5 95 0.1 WSW 24 30 13 16 - - 0.0
03/03:00am -2.9 -10.7 -3.6 95 0.1 WSW 28 33 15 18 - - 0.0
03/02:30am -2.7 -10.8 -3.4 95 0.1 WSW 30 35 16 19 - - 0.0
03/02:00am -2.9 -11.4 -3.6 95 0.1 WSW 32 37 17 20 - - 0.0
03/01:30am -3.0 -10.8 -3.7 95 0.1 WSW 28 35 15 19 - - 0.0
03/01:00am -3.1 -11.3 -3.8 95 0.1 WSW 30 35 16 19 - - 0.0
03/12:30am -3.0 -11.2 -3.7 95 0.1 WSW 30 35 16 19 - - 0.0
03/12:00am -3.1 -11.8 -3.8 95 0.1 WSW 33 39 18 21 - - 0.0
 
Date/Time
EST
Temp
°C
App
Temp
°C
Dew
Point
Rel
Hum
%
Delta-T
°C
Wind Press
QNH
hPa
Press
MSL
hPa
Rain
since 9 am
mm
Dir
 
Spd
km/h
Gust
km/h
Spd
kts
Gust
kts
02/11:30pm -3.2 -12.7 -3.9 95 0.1 WSW 37 41 20 22 - - 0.0
02/11:00pm -3.2 -11.8 -3.9 95 0.1 WSW 32 37 17 20 - - 0.0
02/10:30pm -3.3 -10.7 -4.0 95 0.1 WSW 26 32 14 17 - - 0.0
02/10:00pm -3.4 -11.6 -4.1 95 0.1 WSW 30 37 16 20 - - 0.0
02/09:30pm -3.5 -11.7 -4.2 95 0.1 WSW 30 37 16 20 - - 0.0
02/09:00pm -3.5 -12.1 -4.2 95 0.1 WSW 32 41 17 22 - - 0.0
02/08:30pm -3.6 -11.8 -4.3 95 0.1 WSW 30 37 16 20 - - 0.0
02/08:00pm -3.5 -12.1 -4.2 95 0.1 WSW 32 43 17 23 - - 0.0
02/07:30pm -3.5 -11.0 -4.2 95 0.1 WSW 26 33 14 18 - - 0.0
02/07:00pm -3.6 -11.5 -4.3 95 0.1 WSW 28 35 15 19 - - 0.0
02/06:30pm -3.7 -12.3 -4.4 95 0.1 WSW 32 39 17 21 - - 0.0
02/06:00pm -3.9 -12.7 -4.7 94 0.1 WSW 33 41 18 22 - - 0.0
02/05:30pm -3.7 -12.3 -4.4 95 0.1 WSW 32 43 17 23 - - 0.0
02/05:00pm -3.2 -9.5 -3.9 95 0.1 WSW 20 28 11 15 - - 0.0
02/04:30pm -3.2 -11.0 -3.9 95 0.1 WSW 28 37 15 20 - - 0.0
02/04:00pm -3.0 -11.5 -3.7 95 0.1 WSW 32 37 17 20 - - 0.0
02/03:30pm -2.8 -13.6 -3.5 95 0.1 WSW 44 52 24 28 - - 0.0
02/03:00pm -2.8 -13.6 -3.5 95 0.1 WSW 44 52 24 28 - - 0.0
02/02:30pm -2.5 -11.9 -3.0 96 0.1 WSW 37 44 20 24 - - 0.0
02/02:00pm -2.7 -13.9 -3.4 95 0.1 WSW 46 56 25 30 - - 0.0
02/01:30pm -2.7 -13.9 -3.4 95 0.1 WSW 46 54 25 29 - - 0.0
02/01:00pm -2.8 -14.7 -3.5 95 0.1 WSW 50 57 27 31 - - 0.0
02/12:30pm -2.7 -13.5 -3.4 95 0.1 WSW 44 56 24 30 - - 0.0
02/12:00pm -2.4 -11.8 -2.9 96 0.1 WSW 37 50 20 27 - - 0.0
02/11:30am -2.5 -11.9 -3.2 95 0.1 WSW 37 52 20 28 - - 0.0
02/11:00am -2.6 -14.1 -3.3 95 0.1 WSW 48 57 26 31 - - 0.0
02/10:43am -2.7 -13.3 -3.4 95 0.1 WSW 43 61 23 33 - - 0.0
02/10:30am -2.7 -13.5 -3.4 95 0.1 WSW 44 59 24 32 - - 0.0
02/10:00am -3.0 -15.0 -3.7 95 0.1 WSW 50 61 27 33 - - 0.0
02/09:30am -3.2 -16.5 -3.9 95 0.1 WSW 57 67 31 36 - - 0.0
02/09:00am -3.3 -14.5 -4.0 95 0.1 WSW 46 59 25 32 - - 1.8
02/08:30am -3.5 -16.3 -4.2 95 0.1 WSW 54 65 29 35 - - 1.8
02/08:00am -3.5 -15.1 -4.2 95 0.1 WSW 48 59 26 32 - - 1.8
02/07:30am -3.6 -16.8 -4.3 95 0.1 WSW 56 69 30 37 - - 1.8
02/07:14am -3.4 -17.5 -4.1 95 0.1 WSW 61 83 33 45 - - 1.8
02/07:00am -3.4 -16.7 -4.1 95 0.1 WSW 57 70 31 38 - - 1.8
02/06:30am -3.4 -16.2 -4.1 95 0.1 WSW 54 65 29 35 - - 1.8
02/06:00am -3.3 -15.7 -4.0 95 0.1 WSW 52 67 28 36 - - 1.8
02/05:30am -3.3 -14.9 -4.0 95 0.1 WSW 48 59 26 32 - - 1.8
02/05:00am -3.3 -16.6 -4.0 95 0.1 WSW 57 69 31 37 - - 1.8
02/04:51am -3.4 -16.7 -4.1 95 0.1 WSW 57 76 31 41 - - 1.8

Other Formats:

Comma delimited format used in spreadsheet applications
http://www.bom.gov.au/fwo/IDT60801/IDT60801.95979.axf

JavaScript Object Notation format (JSON) in row-major order
http://www.bom.gov.au/fwo/IDT60801/IDT60801.95979.json